Time;durP1;ratioP1;P1;durP2;ratioP2;P2;SDS_P1;SDS_P2;PMS_P1;PMS_P2;Temp;Humidity;BMP_temperature;BMP_pressure;BME280_temperature;BME280_humidity;BME280_pressure;Samples;Min_cycle;Max_cycle;Signal;HPM_P1;HPM_P2
2023/06/03 00:00:37;;;;;;;3.63;2.72;;;;;;;17.01;60.87;94709.25;5083994;28;20028;-73
2023/06/03 00:03:02;;;;;;;3.45;2.58;;;;;;;16.92;60.91;94707.38;5083754;28;20020;-73
2023/06/03 00:05:28;;;;;;;3.38;2.67;;;;;;;17.09;60.11;94699.25;5084466;28;20418;-73
2023/06/03 00:07:53;;;;;;;4.38;2.50;;;;;;;16.99;60.60;94695.84;5084350;28;20150;-73
2023/06/03 00:10:18;;;;;;;3.50;2.80;;;;;;;17.05;60.27;94693.13;5085315;28;20464;-73
2023/06/03 00:12:45;;;;;;;3.47;2.50;;;;;;;17.26;59.87;94691.13;5084025;28;20035;-73
2023/06/03 00:15:11;;;;;;;4.57;2.70;;;;;;;17.43;59.84;94697.66;5090572;28;20026;-72
2023/06/03 00:17:36;;;;;;;3.08;2.30;;;;;;;17.53;59.59;94685.13;5088294;28;20110;-73
2023/06/03 00:20:06;;;;;;;3.60;2.50;;;;;;;17.61;58.95;94690.28;5089898;28;20058;-73
2023/06/03 00:22:33;;;;;;;3.60;2.45;;;;;;;17.67;58.77;94691.09;5087029;28;20487;-73
2023/06/03 00:24:59;;;;;;;2.92;2.45;;;;;;;17.71;58.54;94692.38;5089248;28;20052;-73
2023/06/03 00:27:24;;;;;;;3.25;2.80;;;;;;;17.77;58.19;94690.47;5089298;28;20466;-73
2023/06/03 00:29:49;;;;;;;5.43;2.72;;;;;;;17.81;57.95;94678.38;5087841;28;20668;-72
2023/06/03 00:32:15;;;;;;;2.80;2.22;;;;;;;17.84;57.63;94685.75;5089449;28;20023;-72
2023/06/03 00:34:40;;;;;;;3.35;2.50;;;;;;;17.87;57.53;94684.75;5090345;28;20263;-73
2023/06/03 00:37:06;;;;;;;8.95;2.53;;;;;;;17.92;58.65;94686.81;5094858;28;20115;-73
2023/06/03 00:39:31;;;;;;;3.20;2.65;;;;;;;17.94;59.06;94682.28;5086525;28;20444;-73
2023/06/03 00:41:58;;;;;;;3.38;2.55;;;;;;;17.98;59.20;94687.63;5088453;28;20054;-72
2023/06/03 00:44:23;;;;;;;7.28;3.05;;;;;;;18.00;59.51;94683.09;5086964;28;20032;-73
2023/06/03 00:46:49;;;;;;;4.20;2.53;;;;;;;18.02;59.33;94680.59;5069435;28;20028;-74
2023/06/03 00:49:14;;;;;;;4.88;2.83;;;;;;;18.03;59.00;94679.34;5087368;28;20085;-74
2023/06/03 00:51:40;;;;;;;4.93;3.13;;;;;;;18.04;58.88;94674.53;5085762;28;20032;-73
2023/06/03 00:54:05;;;;;;;5.00;3.08;;;;;;;18.06;58.99;94672.03;5087627;28;20070;-74
2023/06/03 00:56:35;;;;;;;4.63;3.00;;;;;;;18.05;59.01;94673.28;5086001;28;20028;-74
2023/06/03 00:59:01;;;;;;;5.20;3.25;;;;;;;18.01;58.91;94676.31;5087165;28;20501;-74
2023/06/03 01:01:28;;;;;;;4.38;3.20;;;;;;;17.87;59.24;94670.84;5086615;28;20020;-74
2023/06/03 01:03:54;;;;;;;3.65;2.80;;;;;;;17.75;59.25;94676.28;5087536;28;20432;-72
2023/06/03 01:06:27;;;;;;;3.70;2.95;;;;;;;17.74;59.48;94668.44;5088768;28;20055;-73
2023/06/03 01:09:19;;;;;;;3.83;3.25;;;;;;;17.71;59.44;94670.16;5086236;28;20456;-74
2023/06/03 01:12:24;;;;;;;4.10;3.40;;;;;;;17.74;59.64;94662.91;5088009;28;20123;-73
2023/06/03 01:14:58;;;;;;;4.85;3.17;;;;;;;17.78;59.80;94657.88;5088287;28;20066;-73
2023/06/03 01:17:31;;;;;;;4.05;3.13;;;;;;;17.77;59.55;94668.22;5085788;28;20032;-73
2023/06/03 01:19:59;;;;;;;7.43;3.30;;;;;;;17.78;59.62;94669.00;5086584;28;20036;-73
2023/06/03 01:22:26;;;;;;;3.90;3.00;;;;;;;17.75;60.76;94667.97;5085841;28;20063;-73
2023/06/03 01:25:05;;;;;;;6.90;3.33;;;;;;;17.63;61.24;94663.50;5086134;28;20408;-74
2023/06/03 01:27:30;;;;;;;4.47;3.10;;;;;;;17.69;60.94;94658.00;5087687;28;20062;-73
2023/06/03 01:29:56;;;;;;;4.03;3.20;;;;;;;17.65;61.17;94666.56;5085632;28;20103;-74
2023/06/03 01:32:21;;;;;;;4.05;3.10;;;;;;;17.64;61.29;94669.81;5087811;28;20427;-72
2023/06/03 01:34:47;;;;;;;5.32;3.00;;;;;;;17.55;61.44;94664.41;5086501;28;20032;-72
2023/06/03 01:37:13;;;;;;;3.83;3.00;;;;;;;17.56;61.69;94668.75;5086610;28;20058;-72
2023/06/03 01:39:40;;;;;;;8.18;3.42;;;;;;;17.56;61.57;94668.75;5085159;28;20059;-72
2023/06/03 01:42:14;;;;;;;5.38;3.20;;;;;;;17.55;61.46;94665.22;5086160;28;20111;-74
2023/06/03 01:44:40;;;;;;;4.03;3.63;;;;;;;17.50;61.63;94677.03;5085483;28;20028;-72
2023/06/03 01:47:06;;;;;;;4.40;3.15;;;;;;;17.47;61.41;94667.63;5068659;28;20069;-72
2023/06/03 01:49:31;;;;;;;3.28;2.90;;;;;;;17.42;61.51;94671.09;5086270;28;20120;-72
2023/06/03 01:52:01;;;;;;;3.40;2.92;;;;;;;17.42;61.59;94665.56;5087441;28;20024;-72
2023/06/03 01:54:27;;;;;;;3.83;2.85;;;;;;;17.39;61.85;94665.78;5086113;28;20439;-73
2023/06/03 01:56:54;;;;;;;6.90;3.00;;;;;;;17.24;62.31;94671.41;5086088;28;20031;-72
2023/06/03 01:59:24;;;;;;;4.70;3.20;;;;;;;17.22;62.51;94668.34;5086256;28;20016;-72
2023/06/03 02:01:54;;;;;;;5.65;3.35;;;;;;;17.04;62.43;94669.41;5086493;28;20131;-72
2023/06/03 02:04:20;;;;;;;4.15;3.38;;;;;;;17.08;62.74;94669.94;5086528;28;20588;-73
2023/06/03 02:06:52;;;;;;;4.28;3.25;;;;;;;17.11;62.48;94676.56;5086259;28;20135;-72
2023/06/03 02:09:21;;;;;;;4.97;3.53;;;;;;;17.07;62.76;94673.97;5086235;28;20020;-72
2023/06/03 02:11:47;;;;;;;4.18;3.10;;;;;;;17.05;63.17;94673.69;5087331;28;20043;-72
2023/06/03 02:14:12;;;;;;;4.10;3.45;;;;;;;17.02;62.74;94677.44;5084203;28;20042;-73
2023/06/03 02:16:40;;;;;;;4.07;3.22;;;;;;;17.04;63.25;94677.72;5085993;28;20021;-73
2023/06/03 02:19:28;;;;;;;3.85;3.28;;;;;;;17.03;62.76;94678.19;5084841;28;20081;-72
2023/06/03 02:21:56;;;;;;;4.15;3.25;;;;;;;16.99;62.86;94679.19;5068436;28;20028;-73
2023/06/03 02:24:23;;;;;;;8.00;3.90;;;;;;;16.98;63.10;94688.78;5085668;28;20519;-74
2023/06/03 02:26:52;;;;;;;4.95;3.10;;;;;;;16.96;63.25;94673.81;5084599;28;20027;-72
2023/06/03 02:29:29;;;;;;;4.50;2.80;;;;;;;16.94;63.14;94681.88;5085566;28;20027;-73
2023/06/03 02:31:55;;;;;;;3.92;3.53;;;;;;;16.77;63.99;94680.91;5084364;28;20024;-73
2023/06/03 02:34:21;;;;;;;4.90;3.25;;;;;;;16.77;63.91;94692.75;5086900;28;20069;-73
2023/06/03 02:36:47;;;;;;;7.05;3.13;;;;;;;16.78;63.92;94690.75;5085014;28;20138;-73
2023/06/03 02:39:13;;;;;;;4.57;2.97;;;;;;;16.81;63.48;94687.00;5085553;28;20126;-73
2023/06/03 02:41:41;;;;;;;5.45;3.13;;;;;;;16.85;63.75;94696.66;5085096;28;20512;-73
2023/06/03 02:44:07;;;;;;;5.43;3.92;;;;;;;16.86;63.61;94689.88;5085531;28;20026;-72
2023/06/03 02:46:32;;;;;;;6.78;3.97;;;;;;;16.91;63.37;94696.72;5086819;28;20020;-73
2023/06/03 02:49:00;;;;;;;9.07;3.90;;;;;;;16.96;63.42;94696.03;5085166;28;20020;-73
2023/06/03 02:51:25;;;;;;;4.72;3.38;;;;;;;17.01;63.24;94700.16;5085330;28;20051;-72
2023/06/03 02:53:51;;;;;;;4.20;3.80;;;;;;;17.00;63.24;94702.16;5085948;28;20024;-73
2023/06/03 02:56:16;;;;;;;6.00;3.90;;;;;;;17.05;63.22;94709.03;5087242;28;20020;-72
2023/06/03 02:58:42;;;;;;;5.40;4.15;;;;;;;17.07;62.70;94714.88;5092870;28;20024;-72
2023/06/03 03:01:07;;;;;;;5.53;4.35;;;;;;;17.09;62.67;94707.59;5087743;28;20047;-73
2023/06/03 03:03:36;;;;;;;6.03;4.13;;;;;;;17.12;62.76;94708.63;5086579;28;20539;-72
2023/06/03 03:06:03;;;;;;;7.95;3.50;;;;;;;17.14;62.71;94706.88;5084990;28;20077;-72
2023/06/03 03:08:29;;;;;;;6.35;4.38;;;;;;;17.05;62.65;94715.34;5086528;28;20024;-73
2023/06/03 03:10:55;;;;;;;6.55;3.80;;;;;;;17.07;62.49;94721.19;5083779;28;20032;-72
2023/06/03 03:13:20;;;;;;;5.82;3.72;;;;;;;17.11;62.11;94721.75;5085895;28;20016;-73
2023/06/03 03:15:46;;;;;;;4.50;4.03;;;;;;;17.13;62.52;94727.56;5085727;28;20382;-73
2023/06/03 03:18:11;;;;;;;7.32;3.92;;;;;;;17.15;62.16;94732.66;5085339;28;20494;-74
2023/06/03 03:20:36;;;;;;;5.07;3.40;;;;;;;17.16;62.67;94732.16;5067740;28;20044;-74
2023/06/03 03:23:02;;;;;;;6.95;4.07;;;;;;;17.19;62.84;94733.97;5083404;28;20036;-74
2023/06/03 03:25:28;;;;;;;6.75;3.90;;;;;;;17.18;62.43;94732.44;5084654;28;20409;-73
2023/06/03 03:27:53;;;;;;;5.05;4.10;;;;;;;17.22;62.38;94746.13;5084684;28;20097;-74
2023/06/03 03:30:19;;;;;;;6.47;4.55;;;;;;;17.23;62.58;94744.88;5085965;28;20085;-74
2023/06/03 03:32:45;;;;;;;7.07;4.00;;;;;;;17.27;62.60;94737.13;5085094;28;20446;-74
2023/06/03 03:35:19;;;;;;;8.68;4.20;;;;;;;17.32;62.47;94741.97;5085288;28;20028;-73
2023/06/03 03:37:44;;;;;;;7.13;4.55;;;;;;;17.33;62.52;94748.28;5085743;28;20352;-73
2023/06/03 03:40:21;;;;;;;6.25;4.40;;;;;;;17.34;62.41;94750.59;5084287;28;20024;-73
2023/06/03 03:42:51;;;;;;;7.80;4.40;;;;;;;17.35;62.42;94741.00;5084693;28;20027;-72
2023/06/03 03:45:19;;;;;;;9.88;4.63;;;;;;;17.36;62.60;94744.53;5065853;28;20375;-73
2023/06/03 03:47:47;;;;;;;6.78;4.53;;;;;;;17.40;62.56;94754.19;5085538;28;20024;-73
2023/06/03 03:50:46;;;;;;;8.40;4.70;;;;;;;17.42;62.44;94760.03;5083586;28;20063;-73
2023/06/03 03:53:14;;;;;;;7.20;4.10;;;;;;;17.43;62.43;94756.00;5084671;28;20503;-74
2023/06/03 03:55:42;;;;;;;6.30;4.28;;;;;;;17.45;62.33;94753.50;5087102;28;20088;-73
2023/06/03 03:58:25;;;;;;;9.48;5.30;;;;;;;17.49;62.49;94761.63;5082559;28;20128;-73
2023/06/03 04:00:51;;;;;;;9.30;4.60;;;;;;;17.50;62.37;94761.16;5084294;28;20115;-73
2023/06/03 04:03:17;;;;;;;8.60;4.57;;;;;;;17.47;61.95;94756.56;5066691;28;20077;-74
2023/06/03 04:05:47;;;;;;;8.05;4.93;;;;;;;17.30;62.23;94765.91;5083354;28;20040;-72
2023/06/03 04:08:39;;;;;;;8.43;4.90;;;;;;;17.38;62.29;94769.84;5084078;28;20502;-73
2023/06/03 04:11:26;;;;;;;7.63;5.13;;;;;;;17.28;62.29;94762.88;5073111;28;20556;-73
2023/06/03 04:13:51;;;;;;;7.00;4.80;;;;;;;17.29;62.35;94767.19;5085442;28;20024;-73
2023/06/03 04:16:35;;;;;;;8.55;5.28;;;;;;;17.34;62.30;94772.81;5083550;28;20031;-73
2023/06/03 04:19:06;;;;;;;8.70;5.18;;;;;;;17.38;62.02;94765.03;5084170;28;20028;-72
2023/06/03 04:21:32;;;;;;;6.63;4.47;;;;;;;17.34;62.28;94769.28;5085075;28;20108;-72
2023/06/03 04:23:58;;;;;;;8.07;5.00;;;;;;;17.25;61.62;94768.13;5082587;28;20024;-73
2023/06/03 04:26:23;;;;;;;5.68;4.60;;;;;;;16.96;62.76;94763.44;5085417;28;20099;-72
2023/06/03 04:28:49;;;;;;;7.10;4.70;;;;;;;16.84;63.05;94766.53;5083942;28;20107;-74
2023/06/03 04:31:14;;;;;;;9.65;4.95;;;;;;;16.80;63.49;94760.41;5085024;28;20536;-73
2023/06/03 04:33:40;;;;;;;5.85;5.00;;;;;;;16.96;62.90;94765.44;5084594;28;20051;-73
2023/06/03 04:36:05;;;;;;;8.55;5.47;;;;;;;16.96;63.22;94771.78;5084294;28;20412;-73
2023/06/03 04:38:31;;;;;;;8.70;4.68;;;;;;;17.08;63.44;94766.38;5084834;28;20100;-73
2023/06/03 04:40:56;;;;;;;9.20;5.35;;;;;;;17.19;63.10;94764.50;5083656;28;20028;-74
2023/06/03 04:43:22;;;;;;;8.90;5.05;;;;;;;17.26;62.63;94760.56;5085357;28;20059;-74
2023/06/03 04:45:49;;;;;;;8.63;5.07;;;;;;;17.38;62.38;94769.84;5082191;28;20025;-74
2023/06/03 04:48:15;;;;;;;7.90;5.25;;;;;;;17.36;62.68;94766.75;5086647;28;20028;-73
2023/06/03 04:50:44;;;;;;;8.68;5.00;;;;;;;17.46;62.17;94766.13;5067001;28;20047;-74
2023/06/03 04:53:11;;;;;;;8.18;5.95;;;;;;;17.57;62.03;94773.84;5084467;28;20032;-73
2023/06/03 04:55:42;;;;;;;7.70;5.05;;;;;;;17.66;62.05;94773.72;5083341;28;20501;-73
2023/06/03 04:58:07;;;;;;;5.57;4.90;;;;;;;17.56;61.99;94777.91;5082523;28;20563;-75
2023/06/03 05:00:33;;;;;;;6.43;5.25;;;;;;;17.58;61.97;94783.72;5086489;28;20115;-72
2023/06/03 05:02:59;;;;;;;7.45;4.30;;;;;;;17.39;62.26;94776.91;5087476;28;20020;-74
2023/06/03 05:05:25;;;;;;;7.07;4.88;;;;;;;17.51;62.06;94781.38;5088949;28;20050;-73
2023/06/03 05:07:51;;;;;;;5.50;4.20;;;;;;;17.69;61.52;94783.84;5086452;28;20031;-74
2023/06/03 05:10:17;;;;;;;7.50;4.95;;;;;;;17.73;62.01;94787.22;5087137;28;20023;-73
2023/06/03 05:12:43;;;;;;;9.07;4.90;;;;;;;17.78;61.39;94785.78;5086598;28;20024;-74
2023/06/03 05:15:09;;;;;;;6.82;4.70;;;;;;;17.88;60.63;94787.13;5086289;28;20108;-73
2023/06/03 05:17:34;;;;;;;6.32;4.60;;;;;;;17.92;60.77;94786.94;5087043;28;20024;-73
2023/06/03 05:19:59;;;;;;;5.68;4.47;;;;;;;17.97;60.32;94792.56;5087773;28;20032;-74
2023/06/03 05:22:25;;;;;;;7.82;4.30;;;;;;;18.10;59.39;94789.41;5094480;28;20020;-73
2023/06/03 05:24:50;;;;;;;8.48;4.43;;;;;;;18.08;60.31;94782.81;5087172;28;20498;-73
2023/06/03 05:27:16;;;;;;;9.02;4.75;;;;;;;18.16;60.03;94781.13;5087470;28;20012;-74
2023/06/03 05:29:41;;;;;;;6.13;4.82;;;;;;;18.31;59.58;94792.91;5087189;28;20391;-73
2023/06/03 05:32:07;;;;;;;8.82;4.80;;;;;;;18.28;59.52;94791.09;5087463;28;20035;-73
2023/06/03 05:34:32;;;;;;;6.35;4.95;;;;;;;18.38;59.61;94792.47;5087986;28;20020;-73
2023/06/03 05:36:57;;;;;;;7.03;5.05;;;;;;;18.49;59.08;94794.59;5085345;28;20024;-72
2023/06/03 05:39:23;;;;;;;6.22;5.30;;;;;;;18.22;59.32;94793.81;5087967;28;20062;-72
2023/06/03 05:41:48;;;;;;;6.88;5.55;;;;;;;18.12;59.78;94800.81;5084949;28;20036;-73
2023/06/03 05:44:14;;;;;;;8.57;5.72;;;;;;;18.28;59.51;94794.63;5090438;28;20071;-73
2023/06/03 05:46:39;;;;;;;7.57;5.53;;;;;;;18.44;59.28;94800.88;5086588;28;20024;-74
2023/06/03 05:49:04;;;;;;;10.77;5.88;;;;;;;18.51;58.32;94795.63;5086353;28;20020;-73
2023/06/03 05:51:30;;;;;;;8.40;5.18;;;;;;;18.56;58.00;94799.72;5086007;28;20036;-73
2023/06/03 05:53:55;;;;;;;7.35;4.93;;;;;;;18.69;57.94;94799.34;5086660;28;20016;-74
2023/06/03 05:56:22;;;;;;;8.15;5.35;;;;;;;18.81;58.41;94793.38;5087612;28;20024;-72
2023/06/03 05:58:47;;;;;;;13.00;5.15;;;;;;;18.90;57.02;94797.25;5085914;28;20691;-72
2023/06/03 06:01:13;;;;;;;6.22;4.90;;;;;;;18.97;56.05;94797.53;5087807;28;20020;-74
2023/06/03 06:03:38;;;;;;;6.95;4.97;;;;;;;19.09;56.38;94795.59;5084956;28;20024;-73
2023/06/03 06:06:03;;;;;;;5.95;4.78;;;;;;;19.16;56.85;94791.59;5087582;28;20036;-73
2023/06/03 06:08:29;;;;;;;7.90;4.65;;;;;;;19.29;56.64;94800.28;5085469;28;20396;-74
2023/06/03 06:10:54;;;;;;;7.35;5.00;;;;;;;19.40;56.65;94794.78;5086380;28;20569;-74
2023/06/03 06:13:20;;;;;;;7.30;4.90;;;;;;;19.50;56.46;94790.53;5088272;28;20020;-74
2023/06/03 06:15:59;;;;;;;6.15;4.63;;;;;;;19.63;55.54;94798.50;5084769;28;20047;-73
2023/06/03 06:18:25;;;;;;;6.47;5.63;;;;;;;19.72;55.25;94795.47;5085939;28;20027;-74
2023/06/03 06:20:51;;;;;;;8.02;4.88;;;;;;;19.79;54.88;94795.00;5085594;28;20032;-73
2023/06/03 06:23:16;;;;;;;8.50;5.00;;;;;;;19.86;55.58;94799.34;5086007;28;20024;-73
2023/06/03 06:25:49;;;;;;;8.52;4.82;;;;;;;19.96;55.02;94799.91;5086152;28;20073;-74
2023/06/03 06:28:18;;;;;;;;;;;;;;;20.01;54.25;94788.72;5087252;28;20020;-73
2023/06/03 06:30:44;;;;;;;10.45;4.88;;;;;;;20.08;54.18;94793.84;5086996;28;19918;-73
2023/06/03 06:33:17;;;;;;;7.30;4.43;;;;;;;20.14;53.74;94797.41;5086001;28;20024;-73
2023/06/03 06:35:44;;;;;;;7.63;4.78;;;;;;;20.22;52.48;94799.72;5087478;28;20406;-74
2023/06/03 06:38:10;;;;;;;7.72;4.28;;;;;;;20.31;52.63;94793.91;5085560;28;20506;-73
2023/06/03 06:40:37;;;;;;;6.47;4.45;;;;;;;20.43;52.41;94796.22;5087578;28;20024;-73
2023/06/03 06:43:03;;;;;;;9.93;4.53;;;;;;;20.52;52.20;94789.63;5084427;28;20486;-74
2023/06/03 06:45:30;;;;;;;6.22;4.53;;;;;;;20.62;52.51;94796.50;5085299;28;20031;-74
2023/06/03 06:48:05;;;;;;;8.43;5.18;;;;;;;20.69;51.92;94795.25;5085318;28;20069;-74
2023/06/03 06:50:43;;;;;;;8.65;4.47;;;;;;;20.77;51.46;94796.28;5085437;28;20119;-74
2023/06/03 06:53:08;;;;;;;7.65;4.50;;;;;;;20.89;51.46;94794.25;5085513;28;20494;-74
2023/06/03 06:55:35;;;;;;;8.38;5.25;;;;;;;20.98;51.43;94796.00;5084115;28;20024;-72
2023/06/03 06:58:00;;;;;;;7.32;4.88;;;;;;;20.94;51.92;94794.25;5085451;28;20016;-73
2023/06/03 07:00:28;;;;;;;6.88;4.80;;;;;;;21.07;51.65;94804.91;5084667;28;20028;-73
2023/06/03 07:02:54;;;;;;;7.35;4.75;;;;;;;21.19;51.84;94803.63;5085838;28;20028;-74
2023/06/03 07:05:19;;;;;;;9.98;4.68;;;;;;;21.33;51.30;94810.22;5086244;28;20040;-75
2023/06/03 07:07:47;;;;;;;10.38;4.93;;;;;;;21.43;50.83;94803.09;5085520;28;20123;-74
2023/06/03 07:10:13;;;;;;;8.88;5.70;;;;;;;21.57;51.14;94801.28;5086322;28;20418;-74
2023/06/03 07:12:40;;;;;;;14.23;5.82;;;;;;;21.61;50.53;94803.81;5085294;28;20024;-74
2023/06/03 07:15:05;;;;;;;6.03;4.78;;;;;;;21.77;50.20;94805.81;5086959;28;20077;-74
2023/06/03 07:17:31;;;;;;;10.20;4.93;;;;;;;21.87;49.97;94812.63;5086059;28;20024;-74
2023/06/03 07:19:57;;;;;;;6.63;4.20;;;;;;;21.97;49.37;94818.72;5086696;28;20031;-74
2023/06/03 07:22:22;;;;;;;7.22;4.60;;;;;;;22.05;49.14;94816.13;5085877;28;20024;-73
2023/06/03 07:24:48;;;;;;;8.82;3.83;;;;;;;22.14;48.48;94815.88;5085370;28;20028;-74
2023/06/03 07:27:19;;;;;;;6.97;4.25;;;;;;;22.19;48.96;94820.66;5086229;28;20024;-74
2023/06/03 07:29:45;;;;;;;7.22;5.22;;;;;;;22.14;48.55;94821.47;5085745;28;20039;-76
2023/06/03 07:32:10;;;;;;;8.70;3.92;;;;;;;22.16;48.73;94828.06;5087567;28;20024;-74
2023/06/03 07:34:36;;;;;;;6.30;3.35;;;;;;;22.27;48.39;94830.06;5086029;28;20066;-74
2023/06/03 07:37:02;;;;;;;6.32;3.55;;;;;;;22.39;48.17;94828.72;5068149;28;20106;-74
2023/06/03 07:39:28;;;;;;;5.90;3.53;;;;;;;22.50;48.07;94833.50;5084171;28;20032;-74
2023/06/03 07:41:54;;;;;;;6.75;3.40;;;;;;;22.48;47.86;94836.81;5085452;28;20035;-74
2023/06/03 07:44:37;;;;;;;3.35;3.05;;;;;;;22.48;48.16;94838.84;5088969;28;20035;-75
2023/06/03 07:47:03;;;;;;;5.20;3.33;;;;;;;22.60;48.08;94840.31;5086298;28;20539;-74
2023/06/03 07:49:29;;;;;;;5.95;3.20;;;;;;;22.71;48.14;94848.66;5085520;28;20096;-76
2023/06/03 07:51:54;;;;;;;4.05;3.28;;;;;;;22.82;47.39;94850.59;5066285;28;20052;-75
2023/06/03 07:54:19;;;;;;;4.88;2.92;;;;;;;22.92;47.50;94848.28;5085924;28;20098;-74
2023/06/03 07:56:46;;;;;;;8.10;3.10;;;;;;;22.97;47.23;94851.03;5085179;28;20126;-73
2023/06/03 07:59:13;;;;;;;4.40;3.00;;;;;;;22.91;47.36;94853.13;5084686;28;20028;-74
2023/06/03 08:01:39;;;;;;;4.65;2.95;;;;;;;22.93;47.65;94852.59;5084289;28;20039;-73
2023/06/03 08:04:18;;;;;;;6.13;2.97;;;;;;;23.11;47.52;94857.59;5083183;28;20024;-74
2023/06/03 08:06:49;;;;;;;4.28;2.90;;;;;;;23.27;47.11;94856.66;5084374;28;20044;-74
2023/06/03 08:09:24;;;;;;;5.65;2.70;;;;;;;23.34;46.46;94863.75;5082859;28;20032;-73
2023/06/03 08:11:50;;;;;;;5.22;2.80;;;;;;;23.37;45.35;94850.72;5085874;28;20107;-74
2023/06/03 08:14:15;;;;;;;6.65;2.80;;;;;;;23.39;44.83;94854.50;5083731;28;20103;-73
2023/06/03 08:16:41;;;;;;;5.20;3.10;;;;;;;23.44;45.06;94850.16;5083110;28;20090;-74
2023/06/03 08:19:07;;;;;;;5.82;2.63;;;;;;;23.47;44.35;94849.88;5085508;28;20032;-74
2023/06/03 08:21:33;;;;;;;4.60;2.50;;;;;;;23.57;44.09;94848.25;5082873;28;20016;-74
2023/06/03 08:23:59;;;;;;;6.63;2.75;;;;;;;23.48;44.37;94842.22;5085181;28;20270;-73
2023/06/03 08:26:26;;;;;;;3.90;2.50;;;;;;;23.74;44.18;94847.31;5083242;28;20394;-73
2023/06/03 08:28:52;;;;;;;5.85;2.95;;;;;;;23.85;43.05;94858.44;5085891;28;20097;-73
2023/06/03 08:31:17;;;;;;;4.70;2.10;;;;;;;23.88;42.10;94846.16;5083054;28;20024;-72
2023/06/03 08:33:43;;;;;;;3.83;2.50;;;;;;;23.99;41.66;94846.03;5084057;28;20024;-74
2023/06/03 08:36:08;;;;;;;4.75;2.78;;;;;;;23.94;42.55;94846.09;5089438;28;20024;-73
2023/06/03 08:38:34;;;;;;;5.47;2.65;;;;;;;24.09;42.63;94852.06;5088163;28;20035;-73
2023/06/03 08:40:59;;;;;;;4.50;2.55;;;;;;;24.14;41.75;94828.00;5089407;28;20024;-73
2023/06/03 08:43:33;;;;;;;3.03;1.95;;;;;;;24.33;41.12;94842.84;5086473;28;20103;-74
2023/06/03 08:46:17;;;;;;;2.63;2.30;;;;;;;24.52;41.44;94840.81;5088534;28;20024;-75
2023/06/03 08:49:01;;;;;;;3.10;2.47;;;;;;;24.73;41.21;94851.53;5087484;28;20166;-73
2023/06/03 08:51:26;;;;;;;4.75;2.28;;;;;;;24.83;40.32;94847.00;5069459;28;20039;-73
2023/06/03 08:53:52;;;;;;;5.00;2.30;;;;;;;24.89;39.72;94844.91;5089375;28;20016;-74
2023/06/03 08:56:19;;;;;;;3.63;2.33;;;;;;;24.92;39.95;94851.50;5086235;28;20035;-73
2023/06/03 08:59:05;;;;;;;5.53;2.75;;;;;;;24.92;39.81;94849.44;5089675;28;20039;-74
2023/06/03 09:01:34;;;;;;;3.45;2.50;;;;;;;24.94;40.05;94849.66;5068859;28;20055;-73
2023/06/03 09:04:00;;;;;;;5.57;2.83;;;;;;;25.00;40.18;94846.75;5088425;28;20024;-73
2023/06/03 09:06:26;;;;;;;5.72;2.50;;;;;;;25.04;39.89;94833.91;5087035;28;20122;-74
2023/06/03 09:08:51;;;;;;;6.32;2.50;;;;;;;25.13;39.21;94844.81;5086584;28;20513;-73
2023/06/03 09:11:17;;;;;;;3.10;2.40;;;;;;;25.28;38.96;94844.28;5087630;28;20107;-72
2023/06/03 09:13:42;;;;;;;2.55;2.17;;;;;;;25.23;38.64;94841.56;5086131;28;20480;-73
2023/06/03 09:16:09;;;;;;;4.65;2.60;;;;;;;25.42;39.06;94845.84;5070971;28;20505;-73
2023/06/03 09:18:36;;;;;;;4.43;2.85;;;;;;;25.48;39.82;94839.38;5086232;28;20040;-74
2023/06/03 09:21:02;;;;;;;4.50;2.63;;;;;;;25.66;39.14;94828.03;5087594;28;20214;-74
2023/06/03 09:23:27;;;;;;;4.90;2.50;;;;;;;25.72;39.26;94827.94;5089545;28;20028;-74
2023/06/03 09:25:53;;;;;;;5.50;2.75;;;;;;;25.91;38.67;94825.78;5086624;28;20093;-73
2023/06/03 09:28:19;;;;;;;3.63;2.20;;;;;;;26.07;38.38;94835.22;5087771;28;20354;-74
2023/06/03 09:30:45;;;;;;;3.92;2.80;;;;;;;26.19;38.44;94827.31;5085804;28;20020;-74
2023/06/03 09:33:10;;;;;;;4.15;2.92;;;;;;;26.30;37.78;94823.50;5088904;28;20512;-73
2023/06/03 09:35:35;;;;;;;7.13;2.83;;;;;;;26.38;37.01;94813.06;5085617;28;20063;-72
2023/06/03 09:38:04;;;;;;;4.55;3.10;;;;;;;26.43;36.73;94812.22;5088860;28;20028;-73
2023/06/03 09:40:31;;;;;;;4.85;2.90;;;;;;;26.46;36.03;94817.53;5085860;28;20028;-73
2023/06/03 09:42:57;;;;;;;4.47;2.53;;;;;;;26.47;35.96;94816.22;5086256;28;20020;-74
2023/06/03 09:45:29;;;;;;;3.13;2.38;;;;;;;26.63;36.32;94807.97;5086383;28;20028;-74
2023/06/03 09:47:56;;;;;;;7.22;3.75;;;;;;;26.55;36.86;94807.09;5085521;28;20119;-74
2023/06/03 09:50:22;;;;;;;3.63;2.72;;;;;;;26.71;36.72;94815.19;5088337;28;20737;-75
2023/06/03 09:52:47;;;;;;;4.78;2.30;;;;;;;26.79;36.31;94798.38;5068383;28;20024;-74
2023/06/03 09:55:14;;;;;;;3.13;2.20;;;;;;;26.96;35.93;94804.38;5088472;28;20099;-73
2023/06/03 09:57:40;;;;;;;2.88;2.30;;;;;;;27.16;35.68;94811.34;5085365;28;20031;-74
2023/06/03 10:00:11;;;;;;;6.13;2.50;;;;;;;27.15;35.91;94806.25;5069432;28;20023;-74
2023/06/03 10:02:37;;;;;;;3.13;2.10;;;;;;;27.40;35.02;94801.75;5087877;28;20028;-74
2023/06/03 10:05:03;;;;;;;3.22;2.15;;;;;;;27.57;34.13;94800.56;5085477;28;20044;-74
2023/06/03 10:07:28;;;;;;;3.20;2.40;;;;;;;27.86;34.34;94821.13;5092989;28;20093;-73
2023/06/03 10:10:03;;;;;;;2.67;1.90;;;;;;;28.05;33.55;94808.28;5090314;28;20035;-74
2023/06/03 10:12:30;;;;;;;4.30;2.08;;;;;;;28.27;33.74;94801.25;5087058;28;20027;-75
2023/06/03 10:14:58;;;;;;;5.80;2.65;;;;;;;28.40;34.74;94800.38;5085627;28;20104;-74
2023/06/03 10:17:24;;;;;;;3.88;2.45;;;;;;;28.70;34.00;94804.63;5088530;28;20106;-75
2023/06/03 10:19:49;;;;;;;2.78;2.15;;;;;;;28.78;33.75;94794.84;5085821;28;20036;-74
2023/06/03 10:22:17;;;;;;;5.82;2.70;;;;;;;28.74;33.27;94791.63;5086474;28;20350;-75
2023/06/03 10:24:45;;;;;;;2.90;2.40;;;;;;;28.92;33.16;94789.78;5085956;28;20024;-75
2023/06/03 10:27:11;;;;;;;6.88;2.67;;;;;;;28.99;33.06;94797.56;5084900;28;20028;-75
2023/06/03 10:29:37;;;;;;;3.20;2.45;;;;;;;29.04;33.11;94795.88;5087505;28;20035;-76
2023/06/03 10:32:08;;;;;;;6.07;2.72;;;;;;;29.11;32.84;94797.97;5086099;28;20028;-74
2023/06/03 10:34:39;;;;;;;4.80;2.63;;;;;;;29.17;32.50;94801.34;5087503;28;20024;-74
2023/06/03 10:37:06;;;;;;;3.23;2.40;;;;;;;29.22;32.32;94794.75;5085639;28;20027;-73
2023/06/03 10:39:31;;;;;;;4.75;3.30;;;;;;;29.22;32.38;94796.84;5086640;28;20020;-73
2023/06/03 10:42:01;;;;;;;2.47;2.00;;;;;;;29.20;32.12;94791.75;5068481;28;20028;-73
2023/06/03 10:44:27;;;;;;;3.90;2.38;;;;;;;29.21;31.60;94789.69;5067569;28;20020;-73
2023/06/03 10:46:59;;;;;;;4.28;2.20;;;;;;;29.32;31.22;94792.88;5087182;28;20032;-73
2023/06/03 10:49:28;;;;;;;4.05;2.00;;;;;;;29.34;31.37;94790.25;5067768;28;20490;-74
2023/06/03 10:52:45;;;;;;;4.22;2.25;;;;;;;29.60;30.88;94785.56;5085381;28;20115;-73
2023/06/03 10:55:25;;;;;;;2.20;1.70;;;;;;;29.78;29.95;94787.22;5004849;28;20504;-73
2023/06/03 10:58:06;;;;;;;2.80;2.10;;;;;;;29.70;29.71;94780.06;5001799;28;20065;-73
2023/06/03 11:00:55;;;;;;;2.88;1.73;;;;;;;29.57;29.88;94783.84;4988106;28;20497;-73
2023/06/03 11:03:23;;;;;;;3.10;2.42;;;;;;;29.26;29.33;94785.91;4987976;28;20050;-73
2023/06/03 11:05:50;;;;;;;2.85;1.90;;;;;;;29.38;29.81;94784.22;5002743;28;20129;-74
2023/06/03 11:08:52;;;;;;;4.40;2.10;;;;;;;29.47;30.48;94788.53;4988142;28;20088;-74
2023/06/03 11:14:28;;;;;;;3.15;1.88;;;;;;;29.71;29.37;94784.41;5002626;28;20070;-73
2023/06/03 11:16:56;;;;;;;3.13;1.80;;;;;;;29.68;28.98;94777.03;4991381;28;20121;-73
2023/06/03 11:19:34;;;;;;;3.78;1.80;;;;;;;29.72;29.08;94780.25;5002957;28;20567;-73
2023/06/03 11:22:07;;;;;;;3.22;1.90;;;;;;;29.76;28.85;94778.53;5004161;28;20076;-74
2023/06/03 11:24:39;;;;;;;2.80;1.83;;;;;;;29.85;29.22;94783.63;4988069;28;20038;-74
2023/06/03 11:27:10;;;;;;;3.60;1.97;;;;;;;29.89;29.25;94784.00;5085589;28;20044;-73
2023/06/03 11:29:51;;;;;;;2.72;1.80;;;;;;;29.86;29.01;94779.47;5086287;28;20024;-74
2023/06/03 11:32:26;;;;;;;3.17;2.30;;;;;;;30.04;28.04;94777.53;5085056;28;20431;-75
2023/06/03 11:35:03;;;;;;;2.65;2.10;;;;;;;30.18;28.55;94772.44;5086168;28;20039;-74
2023/06/03 11:37:40;;;;;;;3.80;2.45;;;;;;;30.15;29.08;94770.72;5086240;28;20132;-73
2023/06/03 11:40:19;;;;;;;4.35;2.10;;;;;;;30.21;28.99;94767.69;5084809;28;20032;-74
2023/06/03 11:42:46;;;;;;;2.80;2.03;;;;;;;30.17;28.72;94770.19;5084652;28;20043;-75